Wetterdaten: Woche 25.07.16 - 31.07.16 (KW30)
Datum Zeit Temp. I. Temp. A. Feuchte I. Feuchte A. Luftdruck Regen Wind Richtung Sonnenschein UV Solar Taupunkt Windchill Windben
25.07.2016 00:00 25,9 C 17,7 C 66 % 96 % 1017,5 hPa 0,0 l/m 0,0 km/h (0 Bft) N 0,00 h 0,0 UV-I 0 W/m 17,0 C 17,7 C 0,0 km/h (0 Bft)
25.07.2016 01:00 25,9 C 17,1 C 66 % 96 % 1017,3 hPa 0,0 l/m 0,0 km/h (0 Bft) N 0,00 h 0,0 UV-I 0 W/m 16,5 C 17,1 C 0,0 km/h (0 Bft)
25.07.2016 02:00 25,8 C 16,6 C 66 % 96 % 1017,4 hPa 0,0 l/m 0,0 km/h (0 Bft) N 0,00 h 0,0 UV-I 0 W/m 16,0 C 16,6 C 0,0 km/h (0 Bft)
25.07.2016 03:00 25,8 C 16,4 C 66 % 96 % 1017,3 hPa 0,0 l/m 0,0 km/h (0 Bft) N 0,00 h 0,0 UV-I 0 W/m 15,8 C 16,4 C 0,0 km/h (0 Bft)
25.07.2016 04:00 25,7 C 16,3 C 65 % 96 % 1017,2 hPa 0,0 l/m 0,0 km/h (0 Bft) N 0,00 h 0,0 UV-I 0 W/m 15,7 C 16,3 C 0,0 km/h (0 Bft)
25.07.2016 05:00 25,6 C 16,2 C 65 % 96 % 1017,2 hPa 0,0 l/m 0,0 km/h (0 Bft) N 0,00 h 0,0 UV-I 7 W/m 15,6 C 16,2 C 0,0 km/h (0 Bft)
25.07.2016 06:00 25,6 C 16,4 C 65 % 97 % 1017,1 hPa 0,0 l/m 0,0 km/h (0 Bft) N 0,00 h 0,0 UV-I 29 W/m 15,9 C 16,4 C 0,0 km/h (0 Bft)
25.07.2016 07:00 25,6 C 16,8 C 65 % 97 % 1017,1 hPa 0,0 l/m 0,0 km/h (0 Bft) N 0,00 h 0,5 UV-I 55 W/m 16,4 C 16,8 C 0,1 km/h (0 Bft)
25.07.2016 08:00 25,6 C 17,5 C 64 % 98 % 1017,3 hPa 0,0 l/m 0,0 km/h (0 Bft) N-NO 0,45 h 0,8 UV-I 141 W/m 17,2 C 17,5 C 0,1 km/h (0 Bft)
25.07.2016 09:00 25,7 C 18,8 C 64 % 97 % 1017,5 hPa 0,0 l/m 0,6 km/h (0 Bft) NW 0,98 h 1,5 UV-I 210 W/m 18,2 C 18,8 C 1,4 km/h (1 Bft)
25.07.2016 10:00 25,6 C 20,4 C 65 % 92 % 1017,4 hPa 0,0 l/m 0,7 km/h (0 Bft) N 1,00 h 3,0 UV-I 401 W/m 19,0 C 20,4 C 2,0 km/h (1 Bft)
25.07.2016 11:00 25,6 C 23,8 C 65 % 77 % 1017,0 hPa 0,0 l/m 0,3 km/h (0 Bft) W-NW 1,00 h 5,3 UV-I 720 W/m 19,5 C 23,8 C 1,1 km/h (1 Bft)
25.07.2016 12:00 25,8 C 25,7 C 65 % 65 % 1016,6 hPa 0,0 l/m 1,8 km/h (1 Bft) NW 1,00 h 5,8 UV-I 726 W/m 18,5 C 25,6 C 4,3 km/h (1 Bft)
25.07.2016 13:00 25,9 C 27,1 C 65 % 54 % 1016,3 hPa 0,0 l/m 1,8 km/h (1 Bft) N 1,00 h 6,5 UV-I 829 W/m 17,1 C 27,1 C 4,6 km/h (1 Bft)
25.07.2016 14:00 25,9 C 27,5 C 65 % 47 % 1016,1 hPa 0,0 l/m 2,5 km/h (1 Bft) W-NW 1,00 h 5,3 UV-I 615 W/m 15,1 C 27,5 C 6,4 km/h (2 Bft)
25.07.2016 15:00 26,0 C 27,7 C 64 % 46 % 1015,9 hPa 0,0 l/m 2,9 km/h (1 Bft) N-NO 1,00 h 4,1 UV-I 527 W/m 15,1 C 27,7 C 6,5 km/h (2 Bft)
25.07.2016 16:00 26,1 C 26,8 C 64 % 54 % 1015,7 hPa 0,0 l/m 2,8 km/h (1 Bft) N 1,00 h 2,4 UV-I 338 W/m 16,7 C 26,7 C 6,3 km/h (2 Bft)
25.07.2016 17:00 26,2 C 26,6 C 63 % 51 % 1015,6 hPa 0,0 l/m 1,8 km/h (1 Bft) N-NO 0,82 h 1,5 UV-I 234 W/m 15,6 C 26,6 C 4,0 km/h (1 Bft)
25.07.2016 18:00 26,3 C 25,8 C 62 % 57 % 1015,6 hPa 0,0 l/m 4,9 km/h (1 Bft) N-NW 0,15 h 0,8 UV-I 135 W/m 16,7 C 25,7 C 10,1 km/h (2 Bft)
25.07.2016 19:00 26,4 C 24,5 C 63 % 66 % 1016,1 hPa 0,0 l/m 3,5 km/h (1 Bft) N 0,00 h 0,6 UV-I 69 W/m 17,6 C 24,5 C 7,9 km/h (2 Bft)
25.07.2016 20:00 26,1 C 22,7 C 63 % 71 % 1016,4 hPa 0,0 l/m 0,1 km/h (0 Bft) N 0,00 h 0,0 UV-I 12 W/m 17,1 C 22,7 C 0,4 km/h (0 Bft)
25.07.2016 21:00 26,1 C 21,4 C 63 % 76 % 1016,9 hPa 0,0 l/m 0,1 km/h (0 Bft) N-NO 0,00 h 0,0 UV-I 0 W/m 17,0 C 21,4 C 0,6 km/h (0 Bft)
25.07.2016 22:00 26,2 C 20,1 C 63 % 83 % 1017,1 hPa 0,0 l/m 0,0 km/h (0 Bft) N 0,00 h 0,0 UV-I 0 W/m 17,1 C 20,1 C 0,0 km/h (0 Bft)
25.07.2016 23:00 26,0 C 18,8 C 63 % 89 % 1017,3 hPa 0,0 l/m 0,0 km/h (0 Bft) N 0,00 h 0,0 UV-I 0 W/m 16,9 C 18,8 C 0,0 km/h (0 Bft)
26.07.2016 00:00 25,8 C 18,2 C 63 % 91 % 1017,3 hPa 0,0 l/m 0,0 km/h (0 Bft) N 0,00 h 0,0 UV-I 0 W/m 16,7 C 18,2 C 0,0 km/h (0 Bft)
26.07.2016 01:00 25,8 C 17,6 C 63 % 92 % 1017,1 hPa 0,0 l/m 0,0 km/h (0 Bft) N 0,00 h 0,0 UV-I 0 W/m 16,4 C 17,6 C 0,0 km/h (0 Bft)
26.07.2016 02:00 26,0 C 17,0 C 63 % 94 % 1017,2 hPa 0,0 l/m 0,0 km/h (0 Bft) N 0,00 h 0,0 UV-I 0 W/m 16,1 C 17,0 C 0,0 km/h (0 Bft)
26.07.2016 03:00 26,1 C 16,8 C 62 % 94 % 1017,1 hPa 0,0 l/m 0,0 km/h (0 Bft) N 0,00 h 0,0 UV-I 0 W/m 15,9 C 16,8 C 0,0 km/h (0 Bft)
26.07.2016 04:00 26,1 C 16,7 C 62 % 94 % 1017,0 hPa 0,0 l/m 0,0 km/h (0 Bft) N 0,00 h 0,0 UV-I 0 W/m 15,8 C 16,7 C 0,0 km/h (0 Bft)
26.07.2016 05:00 26,1 C 16,6 C 62 % 94 % 1017,1 hPa 0,0 l/m 0,0 km/h (0 Bft) N 0,00 h 0,0 UV-I 8 W/m 15,6 C 16,6 C 0,0 km/h (0 Bft)
26.07.2016 06:00 26,1 C 16,6 C 62 % 94 % 1017,3 hPa 0,0 l/m 0,0 km/h (0 Bft) N 0,00 h 0,0 UV-I 37 W/m 15,7 C 16,6 C 0,0 km/h (0 Bft)
26.07.2016 07:00 26,0 C 17,6 C 62 % 95 % 1017,5 hPa 0,0 l/m 0,0 km/h (0 Bft) N 0,00 h 0,6 UV-I 85 W/m 16,7 C 17,6 C 0,0 km/h (0 Bft)
26.07.2016 08:00 25,9 C 19,4 C 62 % 90 % 1017,6 hPa 0,0 l/m 0,1 km/h (0 Bft) NW 0,00 h 0,9 UV-I 140 W/m 17,7 C 19,4 C 0,3 km/h (0 Bft)
26.07.2016 09:00 26,0 C 21,2 C 62 % 84 % 1017,5 hPa 0,0 l/m 5,0 km/h (1 Bft) NW 0,77 h 1,9 UV-I 293 W/m 18,3 C 21,1 C 8,3 km/h (2 Bft)
26.07.2016 10:00 25,9 C 22,5 C 63 % 80 % 1017,6 hPa 0,0 l/m 2,4 km/h (1 Bft) W-NW 1,00 h 2,2 UV-I 269 W/m 18,8 C 22,4 C 4,4 km/h (1 Bft)
26.07.2016 11:00 25,9 C 23,5 C 63 % 75 % 1017,4 hPa 0,0 l/m 2,8 km/h (1 Bft) NW 1,00 h 3,2 UV-I 382 W/m 18,8 C 23,5 C 5,3 km/h (1 Bft)
26.07.2016 12:00 26,1 C 25,5 C 63 % 67 % 1017,1 hPa 0,0 l/m 1,7 km/h (1 Bft) NW 1,00 h 4,4 UV-I 565 W/m 18,9 C 25,5 C 4,0 km/h (1 Bft)
26.07.2016 13:00 26,1 C 23,8 C 63 % 76 % 1017,0 hPa 0,0 l/m 6,8 km/h (2 Bft) NW 0,97 h 2,1 UV-I 226 W/m 19,3 C 23,4 C 12,9 km/h (3 Bft)
26.07.2016 14:00 26,1 C 22,2 C 63 % 75 % 1017,5 hPa 0,0 l/m 3,6 km/h (1 Bft) N-NO 0,82 h 2,4 UV-I 292 W/m 17,5 C 22,0 C 9,3 km/h (2 Bft)
26.07.2016 15:00 26,1 C 21,7 C 62 % 75 % 1017,2 hPa 0,0 l/m 0,4 km/h (0 Bft) O-SO 1,00 h 2,3 UV-I 307 W/m 17,1 C 21,7 C 1,4 km/h (1 Bft)
26.07.2016 16:00 26,1 C 23,4 C 62 % 75 % 1017,4 hPa 0,0 l/m 0,9 km/h (0 Bft) O-NO 1,00 h 2,3 UV-I 366 W/m 18,6 C 23,4 C 3,0 km/h (1 Bft)
26.07.2016 17:00 26,1 C 23,4 C 62 % 76 % 1017,3 hPa 0,0 l/m 1,3 km/h (1 Bft) O-NO 0,83 h 1,2 UV-I 188 W/m 18,8 C 23,4 C 3,1 km/h (1 Bft)
26.07.2016 18:00 26,1 C 22,7 C 62 % 78 % 1017,3 hPa 0,0 l/m 1,4 km/h (1 Bft) N-NO 0,10 h 0,7 UV-I 91 W/m 18,7 C 22,7 C 3,1 km/h (1 Bft)
26.07.2016 19:00 26,2 C 21,9 C 62 % 78 % 1017,3 hPa 0,0 l/m 0,1 km/h (0 Bft) N-NO 0,00 h 0,0 UV-I 82 W/m 17,9 C 21,9 C 0,5 km/h (0 Bft)
26.07.2016 20:00 26,1 C 21,6 C 63 % 83 % 1017,2 hPa 0,0 l/m 0,0 km/h (0 Bft) N 0,00 h 0,0 UV-I 29 W/m 18,6 C 21,6 C 0,1 km/h (0 Bft)
26.07.2016 21:00 26,1 C 20,8 C 63 % 88 % 1017,6 hPa 0,0 l/m 0,0 km/h (0 Bft) N 0,00 h 0,0 UV-I 0 W/m 18,7 C 20,8 C 0,0 km/h (0 Bft)
26.07.2016 22:00 26,2 C 19,9 C 63 % 91 % 1017,9 hPa 0,0 l/m 0,0 km/h (0 Bft) N 0,00 h 0,0 UV-I 0 W/m 18,4 C 19,9 C 0,0 km/h (0 Bft)
26.07.2016 23:00 25,9 C 19,4 C 64 % 93 % 1017,8 hPa 0,0 l/m 0,0 km/h (0 Bft) N 0,00 h 0,0 UV-I 0 W/m 18,2 C 19,4 C 0,0 km/h (0 Bft)
27.07.2016 00:00 25,8 C 18,9 C 64 % 93 % 1017,7 hPa 0,0 l/m 0,0 km/h (0 Bft) N 0,00 h 0,0 UV-I 0 W/m 17,8 C 18,9 C 0,1 km/h (0 Bft)
27.07.2016 01:00 25,8 C 18,4 C 64 % 94 % 1017,5 hPa 0,0 l/m 0,0 km/h (0 Bft) N 0,00 h 0,0 UV-I 0 W/m 17,4 C 18,4 C 0,0 km/h (0 Bft)
27.07.2016 02:00 25,8 C 17,5 C 64 % 96 % 1017,3 hPa 0,0 l/m 0,0 km/h (0 Bft) N 0,00 h 0,0 UV-I 0 W/m 16,8 C 17,5 C 0,0 km/h (0 Bft)
27.07.2016 03:00 25,8 C 17,0 C 64 % 96 % 1017,0 hPa 0,0 l/m 0,1 km/h (0 Bft) O 0,00 h 0,0 UV-I 0 W/m 16,3 C 17,0 C 0,3 km/h (0 Bft)
27.07.2016 04:00 25,9 C 16,7 C 64 % 96 % 1016,3 hPa 0,0 l/m 0,2 km/h (0 Bft) O 0,00 h 0,0 UV-I 0 W/m 16,1 C 16,7 C 0,7 km/h (0 Bft)
27.07.2016 05:00 25,9 C 16,6 C 65 % 96 % 1015,9 hPa 0,0 l/m 0,0 km/h (0 Bft) N 0,00 h 0,0 UV-I 6 W/m 16,0 C 16,6 C 0,0 km/h (0 Bft)
27.07.2016 06:00 25,9 C 16,6 C 65 % 96 % 1015,9 hPa 0,0 l/m 0,0 km/h (0 Bft) N 0,00 h 0,0 UV-I 25 W/m 16,0 C 16,6 C 0,0 km/h (0 Bft)
27.07.2016 07:00 26,0 C 17,4 C 65 % 97 % 1016,1 hPa 0,0 l/m 0,1 km/h (0 Bft) N-NW 0,08 h 0,7 UV-I 74 W/m 16,9 C 17,4 C 0,2 km/h (0 Bft)
27.07.2016 08:00 26,1 C 19,8 C 65 % 92 % 1015,9 hPa 0,0 l/m 0,1 km/h (0 Bft) SO 0,87 h 1,2 UV-I 265 W/m 18,4 C 19,8 C 0,2 km/h (0 Bft)
27.07.2016 09:00 26,1 C 21,7 C 65 % 85 % 1015,7 hPa 0,0 l/m 0,7 km/h (0 Bft) S 0,87 h 2,1 UV-I 345 W/m 19,1 C 21,7 C 1,5 km/h (1 Bft)
27.07.2016 10:00 26,1 C 23,8 C 64 % 73 % 1015,5 hPa 0,0 l/m 4,5 km/h (1 Bft) S 1,00 h 3,0 UV-I 491 W/m 18,7 C 23,8 C 8,9 km/h (2 Bft)
27.07.2016 11:00 26,2 C 23,8 C 63 % 72 % 1015,3 hPa 0,0 l/m 5,5 km/h (1 Bft) W-SW 1,00 h 4,2 UV-I 553 W/m 18,5 C 23,7 C 10,8 km/h (2 Bft)
27.07.2016 12:00 26,3 C 24,9 C 63 % 69 % 1014,6 hPa 0,0 l/m 4,9 km/h (1 Bft) S 1,00 h 4,7 UV-I 608 W/m 18,7 C 24,7 C 10,6 km/h (2 Bft)
27.07.2016 13:00 26,3 C 25,8 C 63 % 62 % 1013,9 hPa 0,0 l/m 5,8 km/h (2 Bft) W-SW 1,00 h 5,5 UV-I 730 W/m 18,0 C 25,5 C 12,1 km/h (2 Bft)
27.07.2016 14:00 26,3 C 25,3 C 63 % 63 % 1013,3 hPa 0,0 l/m 5,2 km/h (1 Bft) S 0,93 h 3,8 UV-I 411 W/m 17,7 C 25,2 C 10,9 km/h (2 Bft)
27.07.2016 15:00 26,2 C 20,5 C 64 % 83 % 1013,7 hPa 5,0 l/m 6,5 km/h (2 Bft) W-NW 0,00 h 0,6 UV-I 24 W/m 17,4 C 19,8 C 11,8 km/h (2 Bft)
27.07.2016 16:00 26,3 C 18,0 C 64 % 93 % 1014,0 hPa 0,6 l/m 0,0 km/h (0 Bft) N 0,38 h 1,1 UV-I 118 W/m 16,9 C 18,0 C 0,1 km/h (0 Bft)
27.07.2016 17:00 26,1 C 19,9 C 64 % 93 % 1013,8 hPa 0,0 l/m 3,0 km/h (1 Bft) N-NO 0,43 h 1,3 UV-I 177 W/m 18,7 C 19,6 C 5,6 km/h (1 Bft)
27.07.2016 18:00 26,1 C 18,6 C 64 % 93 % 1014,0 hPa 3,0 l/m 2,1 km/h (1 Bft) SO 0,00 h 0,6 UV-I 27 W/m 17,4 C 18,5 C 5,2 km/h (1 Bft)
27.07.2016 19:00 26,1 C 18,0 C 64 % 94 % 1014,5 hPa 0,4 l/m 0,5 km/h (0 Bft) O-SO 0,00 h 0,0 UV-I 78 W/m 17,0 C 17,9 C 1,4 km/h (1 Bft)
27.07.2016 20:00 26,1 C 18,2 C 64 % 94 % 1014,7 hPa 0,2 l/m 0,0 km/h (0 Bft) N 0,00 h 0,0 UV-I 49 W/m 17,2 C 18,2 C 0,0 km/h (0 Bft)
27.07.2016 21:00 26,1 C 17,7 C 64 % 96 % 1015,2 hPa 0,0 l/m 0,0 km/h (0 Bft) N 0,00 h 0,0 UV-I 10 W/m 16,9 C 17,7 C 0,0 km/h (0 Bft)
27.07.2016 22:00 25,9 C 17,2 C 63 % 97 % 1015,2 hPa 0,0 l/m 0,0 km/h (0 Bft) N 0,00 h 0,0 UV-I 0 W/m 16,6 C 17,2 C 0,0 km/h (0 Bft)
27.07.2016 23:00 25,8 C 16,8 C 64 % 97 % 1015,4 hPa 0,0 l/m 0,0 km/h (0 Bft) N 0,00 h 0,0 UV-I 0 W/m 16,3 C 16,8 C 0,0 km/h (0 Bft)
28.07.2016 00:00 25,8 C 16,4 C 64 % 97 % 1015,7 hPa 0,0 l/m 0,0 km/h (0 Bft) N 0,00 h 0,0 UV-I 0 W/m 15,9 C 16,4 C 0,0 km/h (0 Bft)
28.07.2016 01:00 25,9 C 15,8 C 64 % 96 % 1015,9 hPa 0,0 l/m 0,0 km/h (0 Bft) N 0,00 h 0,0 UV-I 0 W/m 15,2 C 15,8 C 0,0 km/h (0 Bft)
28.07.2016 02:00 25,9 C 15,5 C 64 % 96 % 1015,9 hPa 0,0 l/m 0,0 km/h (0 Bft) N 0,00 h 0,0 UV-I 0 W/m 14,9 C 15,5 C 0,0 km/h (0 Bft)
28.07.2016 03:00 25,9 C 14,9 C 64 % 96 % 1016,1 hPa 0,0 l/m 0,0 km/h (0 Bft) N 0,00 h 0,0 UV-I 0 W/m 14,2 C 14,9 C 0,0 km/h (0 Bft)
28.07.2016 04:00 26,0 C 14,2 C 64 % 96 % 1016,1 hPa 0,0 l/m 0,0 km/h (0 Bft) N 0,00 h 0,0 UV-I 0 W/m 13,6 C 14,2 C 0,0 km/h (0 Bft)
28.07.2016 05:00 25,9 C 14,3 C 65 % 97 % 1016,2 hPa 0,0 l/m 0,0 km/h (0 Bft) N 0,00 h 0,0 UV-I 5 W/m 13,9 C 14,3 C 0,0 km/h (0 Bft)
28.07.2016 06:00 26,0 C 14,7 C 65 % 97 % 1016,2 hPa 0,0 l/m 0,0 km/h (0 Bft) N 0,00 h 0,0 UV-I 12 W/m 14,2 C 14,7 C 0,1 km/h (0 Bft)
28.07.2016 07:00 26,0 C 15,1 C 65 % 98 % 1016,5 hPa 0,0 l/m 0,0 km/h (0 Bft) N 0,05 h 0,6 UV-I 73 W/m 14,7 C 15,1 C 0,0 km/h (0 Bft)
28.07.2016 08:00 26,0 C 16,1 C 64 % 97 % 1016,8 hPa 0,0 l/m 0,0 km/h (0 Bft) N 1,00 h 1,2 UV-I 261 W/m 15,7 C 16,1 C 0,0 km/h (0 Bft)
28.07.2016 09:00 25,9 C 18,9 C 63 % 87 % 1016,7 hPa 0,0 l/m 0,0 km/h (0 Bft) N 1,00 h 2,6 UV-I 538 W/m 16,6 C 18,9 C 0,0 km/h (0 Bft)
28.07.2016 10:00 25,8 C 20,9 C 62 % 78 % 1016,7 hPa 0,0 l/m 0,6 km/h (0 Bft) W 1,00 h 3,6 UV-I 584 W/m 17,0 C 20,9 C 1,6 km/h (1 Bft)
28.07.2016 11:00 25,9 C 22,6 C 61 % 66 % 1016,6 hPa 0,0 l/m 2,4 km/h (1 Bft) S 1,00 h 5,6 UV-I 785 W/m 15,9 C 22,5 C 6,1 km/h (2 Bft)
28.07.2016 12:00 26,1 C 22,9 C 60 % 62 % 1016,3 hPa 0,0 l/m 4,3 km/h (1 Bft) S 1,00 h 5,5 UV-I 657 W/m 15,2 C 22,8 C 8,4 km/h (2 Bft)
28.07.2016 13:00 26,1 C 22,7 C 60 % 60 % 1016,1 hPa 0,0 l/m 4,1 km/h (1 Bft) W-SW 1,00 h 3,4 UV-I 385 W/m 14,5 C 22,6 C 8,5 km/h (2 Bft)
28.07.2016 14:00 26,1 C 23,5 C 61 % 59 % 1015,8 hPa 0,0 l/m 3,6 km/h (1 Bft) W 1,00 h 4,6 UV-I 579 W/m 14,9 C 23,4 C 7,9 km/h (2 Bft)
28.07.2016 15:00 26,2 C 24,0 C 60 % 55 % 1015,1 hPa 0,0 l/m 3,5 km/h (1 Bft) W-SW 1,00 h 3,7 UV-I 480 W/m 14,5 C 24,0 C 8,1 km/h (2 Bft)
28.07.2016 16:00 26,4 C 24,5 C 58 % 53 % 1014,6 hPa 0,0 l/m 2,9 km/h (1 Bft) W-SW 1,00 h 2,9 UV-I 453 W/m 14,4 C 24,5 C 7,0 km/h (2 Bft)
28.07.2016 17:00 26,3 C 24,3 C 59 % 55 % 1014,2 hPa 0,0 l/m 3,1 km/h (1 Bft) W 0,65 h 1,6 UV-I 292 W/m 14,5 C 24,2 C 7,4 km/h (2 Bft)
28.07.2016 18:00 26,3 C 23,6 C 59 % 56 % 1014,0 hPa 0,0 l/m 1,8 km/h (1 Bft) W-SW 0,28 h 0,7 UV-I 120 W/m 14,3 C 23,6 C 5,4 km/h (1 Bft)
28.07.2016 19:00 26,2 C 22,7 C 59 % 60 % 1014,0 hPa 0,0 l/m 1,3 km/h (1 Bft) W 0,00 h 0,5 UV-I 71 W/m 14,5 C 22,7 C 4,3 km/h (1 Bft)
28.07.2016 20:00 26,3 C 21,6 C 60 % 66 % 1014,1 hPa 0,0 l/m 0,1 km/h (0 Bft) W-SW 0,00 h 0,0 UV-I 13 W/m 14,9 C 21,6 C 0,5 km/h (0 Bft)
28.07.2016 21:00 26,2 C 20,3 C 60 % 74 % 1014,3 hPa 0,0 l/m 0,0 km/h (0 Bft) N 0,00 h 0,0 UV-I 0 W/m 15,5 C 20,3 C 0,2 km/h (0 Bft)
28.07.2016 22:00 26,2 C 19,3 C 59 % 81 % 1014,2 hPa 0,0 l/m 0,2 km/h (0 Bft) S-SO 0,00 h 0,0 UV-I 0 W/m 16,0 C 19,3 C 0,9 km/h (0 Bft)
28.07.2016 23:00 26,2 C 18,9 C 60 % 83 % 1014,1 hPa 0,0 l/m 1,7 km/h (1 Bft) S 0,00 h 0,0 UV-I 0 W/m 15,9 C 18,9 C 5,3 km/h (1 Bft)
29.07.2016 00:00 26,1 C 18,4 C 60 % 85 % 1013,9 hPa 0,0 l/m 0,1 km/h (0 Bft) S 0,00 h 0,0 UV-I 0 W/m 15,8 C 18,4 C 0,6 km/h (0 Bft)
29.07.2016 01:00 25,9 C 18,2 C 61 % 86 % 1013,7 hPa 0,0 l/m 0,0 km/h (0 Bft) N 0,00 h 0,0 UV-I 0 W/m 15,8 C 18,2 C 0,1 km/h (0 Bft)
29.07.2016 02:00 25,9 C 17,7 C 61 % 90 % 1014,0 hPa 0,8 l/m 1,7 km/h (1 Bft) SW 0,00 h 0,0 UV-I 0 W/m 16,1 C 17,7 C 5,0 km/h (1 Bft)
29.07.2016 03:00 25,8 C 16,6 C 61 % 94 % 1014,1 hPa 1,4 l/m 0,3 km/h (0 Bft) W-SW 0,00 h 0,0 UV-I 0 W/m 15,7 C 16,6 C 1,1 km/h (1 Bft)
29.07.2016 04:00 25,8 C 16,1 C 62 % 95 % 1013,8 hPa 0,0 l/m 0,2 km/h (0 Bft) S-SO 0,00 h 0,0 UV-I 0 W/m 15,3 C 16,1 C 1,5 km/h (1 Bft)
29.07.2016 05:00 25,8 C 16,0 C 62 % 96 % 1013,5 hPa 0,0 l/m 0,1 km/h (0 Bft) W-SW 0,00 h 0,0 UV-I 5 W/m 15,2 C 16,0 C 0,6 km/h (0 Bft)
29.07.2016 06:00 25,8 C 16,1 C 62 % 96 % 1013,6 hPa 0,0 l/m 0,2 km/h (0 Bft) S 0,00 h 0,0 UV-I 14 W/m 15,5 C 16,1 C 1,3 km/h (1 Bft)
29.07.2016 07:00 25,8 C 16,6 C 62 % 96 % 1013,6 hPa 0,0 l/m 0,8 km/h (0 Bft) S 0,00 h 0,5 UV-I 77 W/m 16,0 C 16,6 C 3,4 km/h (1 Bft)
29.07.2016 08:00 25,8 C 17,1 C 62 % 95 % 1013,7 hPa 0,0 l/m 3,4 km/h (1 Bft) S 0,42 h 0,8 UV-I 117 W/m 16,2 C 17,0 C 8,7 km/h (2 Bft)
29.07.2016 09:00 25,5 C 18,1 C 62 % 91 % 1013,7 hPa 0,0 l/m 3,9 km/h (1 Bft) S 0,90 h 1,4 UV-I 203 W/m 16,5 C 18,0 C 9,3 km/h (2 Bft)
29.07.2016 10:00 25,6 C 18,2 C 62 % 90 % 1013,9 hPa 0,0 l/m 3,4 km/h (1 Bft) SW 0,60 h 1,5 UV-I 175 W/m 16,5 C 18,1 C 9,0 km/h (2 Bft)
29.07.2016 11:00 25,4 C 18,6 C 61 % 88 % 1013,8 hPa 0,2 l/m 5,2 km/h (1 Bft) W 0,60 h 2,0 UV-I 173 W/m 16,6 C 18,2 C 10,8 km/h (2 Bft)
29.07.2016 12:00 25,3 C 21,0 C 60 % 72 % 1013,7 hPa 0,0 l/m 7,8 km/h (2 Bft) W 1,00 h 6,0 UV-I 756 W/m 15,7 C 20,3 C 15,2 km/h (3 Bft)
29.07.2016 13:00 25,6 C 22,2 C 59 % 62 % 1013,5 hPa 0,0 l/m 7,5 km/h (2 Bft) W-SW 1,00 h 5,0 UV-I 527 W/m 14,6 C 21,6 C 14,1 km/h (3 Bft)
29.07.2016 14:00 25,7 C 23,2 C 59 % 60 % 1013,4 hPa 0,0 l/m 8,0 km/h (2 Bft) W 1,00 h 5,7 UV-I 784 W/m 15,1 C 22,6 C 15,2 km/h (3 Bft)
29.07.2016 15:00 25,8 C 23,2 C 58 % 59 % 1013,0 hPa 0,0 l/m 4,8 km/h (1 Bft) W-SW 1,00 h 3,7 UV-I 442 W/m 14,8 C 23,1 C 11,4 km/h (2 Bft)
29.07.2016 16:00 26,0 C 22,3 C 58 % 64 % 1012,8 hPa 0,0 l/m 3,6 km/h (1 Bft) W 0,17 h 1,1 UV-I 124 W/m 15,1 C 22,2 C 8,0 km/h (2 Bft)
29.07.2016 17:00 25,9 C 22,7 C 58 % 64 % 1012,5 hPa 0,0 l/m 2,3 km/h (1 Bft) W 0,78 h 1,5 UV-I 217 W/m 15,4 C 22,6 C 5,9 km/h (2 Bft)
29.07.2016 18:00 26,1 C 22,2 C 58 % 65 % 1012,3 hPa 0,0 l/m 0,2 km/h (0 Bft) W 0,20 h 0,8 UV-I 114 W/m 15,4 C 22,2 C 1,1 km/h (0 Bft)
29.07.2016 19:00 26,0 C 22,2 C 59 % 64 % 1012,1 hPa 0,0 l/m 1,5 km/h (1 Bft) W-SW 0,00 h 0,5 UV-I 51 W/m 15,2 C 22,2 C 3,6 km/h (1 Bft)
29.07.2016 20:00 25,9 C 21,3 C 59 % 69 % 1012,2 hPa 0,0 l/m 0,0 km/h (0 Bft) N 0,00 h 0,0 UV-I 18 W/m 15,2 C 21,3 C 0,0 km/h (0 Bft)
29.07.2016 21:00 25,9 C 19,0 C 59 % 80 % 1012,5 hPa 0,0 l/m 0,0 km/h (0 Bft) N 0,00 h 0,0 UV-I 0 W/m 15,5 C 19,0 C 0,0 km/h (0 Bft)
29.07.2016 22:00 26,0 C 17,9 C 59 % 84 % 1012,7 hPa 0,0 l/m 0,0 km/h (0 Bft) N 0,00 h 0,0 UV-I 0 W/m 15,2 C 17,9 C 0,0 km/h (0 Bft)
29.07.2016 23:00 26,0 C 16,8 C 59 % 88 % 1013,1 hPa 0,0 l/m 0,0 km/h (0 Bft) N 0,00 h 0,0 UV-I 0 W/m 14,8 C 16,8 C 0,0 km/h (0 Bft)
30.07.2016 00:00 25,9 C 16,6 C 60 % 88 % 1013,2 hPa 0,0 l/m 0,0 km/h (0 Bft) N 0,00 h 0,0 UV-I 0 W/m 14,6 C 16,6 C 0,0 km/h (0 Bft)
30.07.2016 01:00 25,8 C 16,4 C 60 % 88 % 1013,3 hPa 0,0 l/m 0,0 km/h (0 Bft) N 0,00 h 0,0 UV-I 0 W/m 14,4 C 16,4 C 0,0 km/h (0 Bft)
30.07.2016 02:00 25,7 C 16,3 C 60 % 89 % 1013,4 hPa 0,0 l/m 0,0 km/h (0 Bft) N 0,00 h 0,0 UV-I 0 W/m 14,5 C 16,3 C 0,0 km/h (0 Bft)
30.07.2016 03:00 25,7 C 16,2 C 60 % 89 % 1013,4 hPa 0,0 l/m 0,0 km/h (0 Bft) N 0,00 h 0,0 UV-I 0 W/m 14,4 C 16,2 C 0,0 km/h (0 Bft)
30.07.2016 04:00 25,8 C 15,8 C 60 % 90 % 1013,2 hPa 0,0 l/m 0,0 km/h (0 Bft) N 0,00 h 0,0 UV-I 0 W/m 14,1 C 15,8 C 0,0 km/h (0 Bft)
30.07.2016 05:00 25,8 C 15,4 C 60 % 91 % 1013,2 hPa 0,0 l/m 0,0 km/h (0 Bft) N 0,00 h 0,0 UV-I 6 W/m 14,0 C 15,4 C 0,0 km/h (0 Bft)
30.07.2016 06:00 25,7 C 15,6 C 60 % 92 % 1013,3 hPa 0,0 l/m 0,0 km/h (0 Bft) N 0,00 h 0,0 UV-I 24 W/m 14,3 C 15,6 C 0,0 km/h (0 Bft)
30.07.2016 07:00 25,7 C 17,4 C 60 % 88 % 1013,4 hPa 0,0 l/m 1,3 km/h (1 Bft) W-SW 0,23 h 0,7 UV-I 138 W/m 15,3 C 17,3 C 3,1 km/h (1 Bft)
30.07.2016 08:00 25,5 C 19,5 C 59 % 79 % 1013,7 hPa 0,0 l/m 3,4 km/h (1 Bft) W-SW 0,95 h 1,4 UV-I 332 W/m 15,8 C 19,4 C 7,2 km/h (2 Bft)
30.07.2016 09:00 25,7 C 21,0 C 59 % 74 % 1013,5 hPa 0,0 l/m 6,5 km/h (2 Bft) S 1,00 h 2,7 UV-I 542 W/m 16,1 C 20,6 C 10,6 km/h (2 Bft)
30.07.2016 10:00 25,6 C 22,4 C 58 % 67 % 1013,2 hPa 0,0 l/m 7,7 km/h (2 Bft) W-SW 1,00 h 3,6 UV-I 693 W/m 16,0 C 21,7 C 14,1 km/h (3 Bft)
30.07.2016 11:00 25,7 C 23,0 C 58 % 62 % 1013,1 hPa 0,0 l/m 5,6 km/h (1 Bft) W-SW 0,88 h 3,8 UV-I 431 W/m 15,4 C 22,7 C 12,2 km/h (2 Bft)
30.07.2016 12:00 25,7 C 23,9 C 57 % 60 % 1012,8 hPa 0,0 l/m 7,0 km/h (2 Bft) W-SW 1,00 h 5,1 UV-I 627 W/m 15,5 C 23,5 C 13,8 km/h (3 Bft)
30.07.2016 13:00 25,8 C 25,1 C 56 % 55 % 1012,5 hPa 0,0 l/m 8,9 km/h (2 Bft) W-SW 1,00 h 6,3 UV-I 754 W/m 15,3 C 24,4 C 16,6 km/h (3 Bft)
30.07.2016 14:00 26,0 C 25,1 C 56 % 55 % 1012,1 hPa 0,0 l/m 5,6 km/h (1 Bft) W-SW 1,00 h 4,6 UV-I 468 W/m 15,4 C 24,9 C 10,9 km/h (2 Bft)
30.07.2016 15:00 26,1 C 26,0 C 56 % 53 % 1011,7 hPa 0,0 l/m 5,5 km/h (1 Bft) W-NW 0,95 h 3,7 UV-I 459 W/m 15,5 C 25,8 C 11,4 km/h (2 Bft)
30.07.2016 16:00 26,0 C 25,8 C 55 % 53 % 1011,5 hPa 0,0 l/m 4,5 km/h (1 Bft) W-SW 0,87 h 2,7 UV-I 251 W/m 15,4 C 25,7 C 9,4 km/h (2 Bft)
30.07.2016 17:00 25,9 C 26,3 C 55 % 49 % 1011,4 hPa 0,0 l/m 6,3 km/h (2 Bft) W 0,75 h 1,9 UV-I 330 W/m 14,7 C 26,0 C 12,8 km/h (3 Bft)
30.07.2016 18:00 25,8 C 25,9 C 55 % 48 % 1011,2 hPa 0,0 l/m 6,7 km/h (2 Bft) W 0,13 h 1,1 UV-I 87 W/m 14,1 C 25,6 C 13,0 km/h (3 Bft)
30.07.2016 19:00 25,7 C 24,7 C 55 % 51 % 1011,1 hPa 0,0 l/m 4,6 km/h (1 Bft) W 0,00 h 0,6 UV-I 27 W/m 13,9 C 24,6 C 10,4 km/h (2 Bft)
30.07.2016 20:00 25,8 C 23,4 C 54 % 58 % 1011,4 hPa 0,0 l/m 0,5 km/h (0 Bft) W-SW 0,00 h 0,0 UV-I 12 W/m 14,7 C 23,4 C 1,8 km/h (1 Bft)
30.07.2016 21:00 25,8 C 20,5 C 55 % 73 % 1011,8 hPa 0,0 l/m 0,0 km/h (0 Bft) N 0,00 h 0,0 UV-I 0 W/m 15,5 C 20,5 C 0,0 km/h (0 Bft)
30.07.2016 22:00 25,5 C 18,5 C 56 % 83 % 1012,0 hPa 0,0 l/m 0,0 km/h (0 Bft) N 0,00 h 0,0 UV-I 0 W/m 15,5 C 18,5 C 0,0 km/h (0 Bft)
30.07.2016 23:00 25,5 C 17,2 C 56 % 88 % 1012,0 hPa 0,0 l/m 0,0 km/h (0 Bft) N 0,00 h 0,0 UV-I 0 W/m 15,1 C 17,2 C 0,0 km/h (0 Bft)
31.07.2016 00:00 25,5 C 16,2 C 56 % 90 % 1012,0 hPa 0,0 l/m 0,0 km/h (0 Bft) N 0,00 h 0,0 UV-I 0 W/m 14,6 C 16,2 C 0,0 km/h (0 Bft)
31.07.2016 01:00 25,5 C 16,0 C 57 % 91 % 1011,8 hPa 0,0 l/m 0,0 km/h (0 Bft) N 0,00 h 0,0 UV-I 0 W/m 14,5 C 16,0 C 0,0 km/h (0 Bft)
31.07.2016 02:00 25,5 C 15,4 C 57 % 92 % 1011,2 hPa 0,0 l/m 0,0 km/h (0 Bft) N 0,00 h 0,0 UV-I 0 W/m 14,2 C 15,4 C 0,0 km/h (0 Bft)
31.07.2016 03:00 25,5 C 14,8 C 57 % 93 % 1010,7 hPa 0,0 l/m 0,0 km/h (0 Bft) N 0,00 h 0,0 UV-I 0 W/m 13,7 C 14,8 C 0,0 km/h (0 Bft)
31.07.2016 04:00 25,5 C 14,4 C 58 % 94 % 1010,6 hPa 0,0 l/m 0,0 km/h (0 Bft) N 0,00 h 0,0 UV-I 0 W/m 13,5 C 14,4 C 0,0 km/h (0 Bft)
31.07.2016 05:00 25,5 C 15,1 C 58 % 95 % 1010,7 hPa 0,2 l/m 0,0 km/h (0 Bft) N 0,00 h 0,0 UV-I 5 W/m 14,3 C 15,1 C 0,3 km/h (0 Bft)
31.07.2016 06:00 25,4 C 15,6 C 58 % 96 % 1011,4 hPa 9,6 l/m 3,2 km/h (1 Bft) N-NO 0,00 h 0,0 UV-I 10 W/m 14,9 C 15,4 C 8,0 km/h (2 Bft)
31.07.2016 07:00 25,4 C 15,7 C 59 % 96 % 1010,6 hPa 2,2 l/m 0,3 km/h (0 Bft) O-NO 0,00 h 0,0 UV-I 23 W/m 15,1 C 15,7 C 1,6 km/h (1 Bft)
31.07.2016 08:00 25,5 C 16,0 C 59 % 96 % 1010,8 hPa 0,2 l/m 0,0 km/h (0 Bft) N 0,07 h 0,7 UV-I 87 W/m 15,4 C 16,0 C 0,0 km/h (0 Bft)
31.07.2016 09:00 25,7 C 17,5 C 59 % 95 % 1010,7 hPa 0,0 l/m 0,0 km/h (0 Bft) N 1,00 h 1,6 UV-I 254 W/m 16,6 C 17,5 C 0,0 km/h (0 Bft)
31.07.2016 10:00 25,7 C 19,6 C 60 % 89 % 1010,4 hPa 0,0 l/m 0,0 km/h (0 Bft) N 1,00 h 2,5 UV-I 320 W/m 17,7 C 19,6 C 0,0 km/h (0 Bft)
31.07.2016 11:00 25,5 C 20,4 C 61 % 86 % 1010,9 hPa 0,0 l/m 2,9 km/h (1 Bft) S 0,93 h 2,3 UV-I 276 W/m 17,9 C 20,4 C 6,1 km/h (2 Bft)
31.07.2016 12:00 25,4 C 19,9 C 61 % 87 % 1011,1 hPa 0,0 l/m 4,6 km/h (1 Bft) S 0,72 h 1,8 UV-I 194 W/m 17,7 C 19,7 C 9,3 km/h (2 Bft)
31.07.2016 13:00 25,5 C 19,8 C 61 % 87 % 1011,0 hPa 0,0 l/m 4,2 km/h (1 Bft) S 0,78 h 2,0 UV-I 208 W/m 17,6 C 19,7 C 9,8 km/h (2 Bft)
31.07.2016 14:00 25,4 C 20,6 C 61 % 84 % 1010,6 hPa 0,0 l/m 3,8 km/h (1 Bft) S 0,98 h 2,3 UV-I 260 W/m 17,9 C 20,6 C 8,7 km/h (2 Bft)
31.07.2016 15:00 25,3 C 20,3 C 61 % 87 % 1010,6 hPa 1,2 l/m 2,9 km/h (1 Bft) S 0,15 h 1,1 UV-I 88 W/m 18,0 C 20,3 C 7,4 km/h (2 Bft)
31.07.2016 16:00 25,3 C 19,3 C 63 % 94 % 1010,7 hPa 0,0 l/m 1,2 km/h (1 Bft) S 0,00 h 0,9 UV-I 112 W/m 18,4 C 19,3 C 3,1 km/h (1 Bft)
31.07.2016 17:00 25,3 C 19,9 C 63 % 92 % 1010,5 hPa 0,0 l/m 1,1 km/h (1 Bft) SW 0,45 h 1,0 UV-I 160 W/m 18,6 C 19,9 C 4,4 km/h (1 Bft)
31.07.2016 18:00 25,5 C 18,1 C 63 % 92 % 1010,8 hPa 10,4 l/m 3,1 km/h (1 Bft) NW 0,00 h 0,5 UV-I 39 W/m 16,8 C 17,7 C 6,0 km/h (2 Bft)
31.07.2016 19:00 25,7 C 18,1 C 63 % 95 % 1011,1 hPa 0,0 l/m 0,0 km/h (0 Bft) N 0,00 h 0,0 UV-I 52 W/m 17,3 C 18,1 C 0,0 km/h (0 Bft)
31.07.2016 20:00 25,6 C 17,8 C 63 % 95 % 1011,7 hPa 0,0 l/m 0,2 km/h (0 Bft) W-SW 0,00 h 0,0 UV-I 13 W/m 17,0 C 17,8 C 0,5 km/h (0 Bft)
31.07.2016 21:00 25,6 C 17,4 C 63 % 95 % 1012,4 hPa 0,0 l/m 0,2 km/h (0 Bft) W 0,00 h 0,0 UV-I 0 W/m 16,6 C 17,4 C 1,2 km/h (1 Bft)
31.07.2016 22:00 25,7 C 16,8 C 63 % 94 % 1013,2 hPa 0,0 l/m 0,2 km/h (0 Bft) W 0,00 h 0,0 UV-I 0 W/m 15,8 C 16,8 C 0,9 km/h (0 Bft)
31.07.2016 23:00 25,7 C 16,4 C 62 % 93 % 1013,9 hPa 0,0 l/m 0,9 km/h (0 Bft) N-NW 0,00 h 0,0 UV-I 0 W/m 15,2 C 16,4 C 3,3 km/h (1 Bft)
Min-Datum _ 30.07.16 28.07.16 30.07.16 25.07.16 31.07.16 - 25.07.16 - - - - 25.07.16 31.07.16 25.07.16
_ Min-Zeit 22:55 04:41 19:13 15:24 10:47 - 00:00 - - - - 14:08 06:05 00:00
Minimum _ 25,2 C 14,1 C 54 % 41 % 1010,2 hPa - 0,0 km/h (0 Bft) - - - - 13,2 C 13,0 C 0,0 km/h (0 Bft)
Max-Datum _ 25.07.16 25.07.16 25.07.16 25.07.16 26.07.16 31.07.16 27.07.16 - 25.07.16 30.07.16 30.07.16 25.07.16 25.07.16 27.07.16
_ Max-Zeit 18:28 15:22 00:00 07:47 22:11 18:24 15:13 - 10:53 12:54 12:54 11:51 15:22 15:13
Maximum _ 26,4 C 28,5 C 66 % 98 % 1018,0 hPa 10,4 l/m 30,6 km/h
W-NW (5 Bft)
- 0,03 h 8,2 UV-I 1144 W/m 20,9 C 28,5 C 43,5 km/h
W-NW (6 Bft)
Durchschnitt _ 25,9 C 19,7 C 61 % 82 % 1014,6 hPa #35,4 l/m 1,6 km/h (1 Bft) W-SW #58:57 h 2,4 UV-I 255 W/m 16,2 C 19,7 C 3,6 km/h (1 Bft)